sensor_id;sensor_type;location;lat;lon;timestamp;P1;durP1;ratioP1;P2;durP2;ratioP2
29246;SDS011;16272;48.188;9.964;2023-04-25T00:01:10;7.90;;;2.70;;
29246;SDS011;16272;48.188;9.964;2023-04-25T00:03:37;6.95;;;2.70;;
29246;SDS011;16272;48.188;9.964;2023-04-25T00:06:03;7.90;;;2.70;;
29246;SDS011;16272;48.188;9.964;2023-04-25T00:08:29;9.80;;;2.47;;
29246;SDS011;16272;48.188;9.964;2023-04-25T00:10:56;8.32;;;2.53;;
29246;SDS011;16272;48.188;9.964;2023-04-25T00:13:22;8.37;;;2.90;;
29246;SDS011;16272;48.188;9.964;2023-04-25T00:15:47;8.20;;;2.58;;
29246;SDS011;16272;48.188;9.964;2023-04-25T00:18:13;6.87;;;2.50;;
29246;SDS011;16272;48.188;9.964;2023-04-25T00:20:40;8.00;;;2.55;;
29246;SDS011;16272;48.188;9.964;2023-04-25T00:23:05;7.75;;;2.83;;
29246;SDS011;16272;48.188;9.964;2023-04-25T00:25:30;9.27;;;2.70;;
29246;SDS011;16272;48.188;9.964;2023-04-25T00:27:56;7.73;;;2.97;;
29246;SDS011;16272;48.188;9.964;2023-04-25T00:30:21;7.93;;;2.47;;
29246;SDS011;16272;48.188;9.964;2023-04-25T00:32:46;8.03;;;2.43;;
29246;SDS011;16272;48.188;9.964;2023-04-25T00:35:12;7.40;;;2.60;;
29246;SDS011;16272;48.188;9.964;2023-04-25T00:37:37;7.30;;;2.70;;
29246;SDS011;16272;48.188;9.964;2023-04-25T00:40:04;6.88;;;2.88;;
29246;SDS011;16272;48.188;9.964;2023-04-25T00:42:31;9.18;;;2.55;;
29246;SDS011;16272;48.188;9.964;2023-04-25T00:44:57;8.67;;;2.50;;
29246;SDS011;16272;48.188;9.964;2023-04-25T00:47:23;7.65;;;2.60;;
29246;SDS011;16272;48.188;9.964;2023-04-25T00:49:50;8.32;;;2.78;;
29246;SDS011;16272;48.188;9.964;2023-04-25T00:52:15;7.63;;;2.73;;
29246;SDS011;16272;48.188;9.964;2023-04-25T00:54:40;9.30;;;2.70;;
29246;SDS011;16272;48.188;9.964;2023-04-25T00:57:06;8.20;;;2.63;;
29246;SDS011;16272;48.188;9.964;2023-04-25T00:59:31;6.63;;;2.13;;
29246;SDS011;16272;48.188;9.964;2023-04-25T01:01:56;7.18;;;2.40;;
29246;SDS011;16272;48.188;9.964;2023-04-25T01:04:23;9.63;;;2.85;;
29246;SDS011;16272;48.188;9.964;2023-04-25T01:06:48;8.03;;;3.10;;
29246;SDS011;16272;48.188;9.964;2023-04-25T01:09:14;7.73;;;3.13;;
29246;SDS011;16272;48.188;9.964;2023-04-25T01:11:39;8.05;;;3.00;;
29246;SDS011;16272;48.188;9.964;2023-04-25T01:14:05;8.10;;;2.80;;
29246;SDS011;16272;48.188;9.964;2023-04-25T01:16:30;6.90;;;2.67;;
29246;SDS011;16272;48.188;9.964;2023-04-25T01:18:58;8.35;;;2.70;;
29246;SDS011;16272;48.188;9.964;2023-04-25T01:21:24;7.32;;;2.00;;
29246;SDS011;16272;48.188;9.964;2023-04-25T01:23:52;6.90;;;2.63;;
29246;SDS011;16272;48.188;9.964;2023-04-25T01:26:18;7.63;;;2.37;;
29246;SDS011;16272;48.188;9.964;2023-04-25T01:28:46;6.97;;;2.10;;
29246;SDS011;16272;48.188;9.964;2023-04-25T01:31:12;7.25;;;2.28;;
29246;SDS011;16272;48.188;9.964;2023-04-25T01:33:37;5.90;;;2.00;;
29246;SDS011;16272;48.188;9.964;2023-04-25T01:36:03;6.87;;;2.20;;
29246;SDS011;16272;48.188;9.964;2023-04-25T01:38:29;6.47;;;2.13;;
29246;SDS011;16272;48.188;9.964;2023-04-25T01:40:54;6.57;;;1.90;;
29246;SDS011;16272;48.188;9.964;2023-04-25T01:43:21;7.70;;;2.10;;
29246;SDS011;16272;48.188;9.964;2023-04-25T01:45:46;5.97;;;1.97;;
29246;SDS011;16272;48.188;9.964;2023-04-25T01:48:13;7.63;;;2.03;;
29246;SDS011;16272;48.188;9.964;2023-04-25T01:50:39;6.70;;;1.97;;
29246;SDS011;16272;48.188;9.964;2023-04-25T01:53:05;6.88;;;1.70;;
29246;SDS011;16272;48.188;9.964;2023-04-25T01:55:31;6.35;;;1.73;;
29246;SDS011;16272;48.188;9.964;2023-04-25T01:57:56;5.20;;;1.77;;
29246;SDS011;16272;48.188;9.964;2023-04-25T02:00:22;5.90;;;1.83;;
29246;SDS011;16272;48.188;9.964;2023-04-25T02:02:47;5.65;;;1.65;;
29246;SDS011;16272;48.188;9.964;2023-04-25T02:05:13;5.80;;;1.57;;
29246;SDS011;16272;48.188;9.964;2023-04-25T02:07:38;5.70;;;1.40;;
29246;SDS011;16272;48.188;9.964;2023-04-25T02:10:04;5.93;;;1.70;;
29246;SDS011;16272;48.188;9.964;2023-04-25T02:12:30;5.80;;;1.50;;
29246;SDS011;16272;48.188;9.964;2023-04-25T02:14:56;6.22;;;1.52;;
29246;SDS011;16272;48.188;9.964;2023-04-25T02:17:21;5.90;;;1.60;;
29246;SDS011;16272;48.188;9.964;2023-04-25T02:19:46;5.73;;;1.60;;
29246;SDS011;16272;48.188;9.964;2023-04-25T02:22:12;4.93;;;1.27;;
29246;SDS011;16272;48.188;9.964;2023-04-25T02:24:37;5.53;;;1.40;;
29246;SDS011;16272;48.188;9.964;2023-04-25T02:27:03;7.67;;;1.80;;
29246;SDS011;16272;48.188;9.964;2023-04-25T02:29:29;6.43;;;1.80;;
29246;SDS011;16272;48.188;9.964;2023-04-25T02:31:54;6.40;;;1.52;;
29246;SDS011;16272;48.188;9.964;2023-04-25T02:34:20;5.57;;;1.70;;
29246;SDS011;16272;48.188;9.964;2023-04-25T02:36:45;5.65;;;1.40;;
29246;SDS011;16272;48.188;9.964;2023-04-25T02:39:10;7.10;;;1.70;;
29246;SDS011;16272;48.188;9.964;2023-04-25T02:41:36;7.50;;;1.73;;
29246;SDS011;16272;48.188;9.964;2023-04-25T02:44:01;5.83;;;1.57;;
29246;SDS011;16272;48.188;9.964;2023-04-25T02:46:27;5.97;;;1.97;;
29246;SDS011;16272;48.188;9.964;2023-04-25T02:48:52;6.50;;;1.77;;
29246;SDS011;16272;48.188;9.964;2023-04-25T02:51:17;7.10;;;1.70;;
29246;SDS011;16272;48.188;9.964;2023-04-25T02:53:43;6.53;;;1.73;;
29246;SDS011;16272;48.188;9.964;2023-04-25T02:56:09;6.43;;;1.90;;
29246;SDS011;16272;48.188;9.964;2023-04-25T02:58:34;6.38;;;1.67;;
29246;SDS011;16272;48.188;9.964;2023-04-25T03:00:59;7.30;;;2.07;;
29246;SDS011;16272;48.188;9.964;2023-04-25T03:03:25;6.70;;;1.73;;
29246;SDS011;16272;48.188;9.964;2023-04-25T03:05:51;6.67;;;1.93;;
29246;SDS011;16272;48.188;9.964;2023-04-25T03:08:17;8.18;;;1.65;;
29246;SDS011;16272;48.188;9.964;2023-04-25T03:10:43;6.50;;;1.70;;
29246;SDS011;16272;48.188;9.964;2023-04-25T03:13:09;6.20;;;1.50;;
29246;SDS011;16272;48.188;9.964;2023-04-25T03:15:35;5.73;;;1.53;;
29246;SDS011;16272;48.188;9.964;2023-04-25T03:18:00;6.72;;;2.03;;
29246;SDS011;16272;48.188;9.964;2023-04-25T03:20:25;6.50;;;1.73;;
29246;SDS011;16272;48.188;9.964;2023-04-25T03:22:51;6.07;;;1.80;;
29246;SDS011;16272;48.188;9.964;2023-04-25T03:25:16;7.33;;;2.03;;
29246;SDS011;16272;48.188;9.964;2023-04-25T03:27:42;7.67;;;2.00;;
29246;SDS011;16272;48.188;9.964;2023-04-25T03:30:07;6.40;;;2.03;;
29246;SDS011;16272;48.188;9.964;2023-04-25T03:32:33;6.10;;;1.92;;
29246;SDS011;16272;48.188;9.964;2023-04-25T03:34:59;9.23;;;2.35;;
29246;SDS011;16272;48.188;9.964;2023-04-25T03:37:24;7.53;;;2.07;;
29246;SDS011;16272;48.188;9.964;2023-04-25T03:39:50;6.33;;;1.73;;
29246;SDS011;16272;48.188;9.964;2023-04-25T03:42:15;7.63;;;2.03;;
29246;SDS011;16272;48.188;9.964;2023-04-25T03:44:41;6.97;;;1.80;;
29246;SDS011;16272;48.188;9.964;2023-04-25T03:47:06;6.23;;;1.77;;
29246;SDS011;16272;48.188;9.964;2023-04-25T03:49:32;8.50;;;2.07;;
29246;SDS011;16272;48.188;9.964;2023-04-25T03:51:57;8.95;;;2.33;;
29246;SDS011;16272;48.188;9.964;2023-04-25T03:54:23;7.87;;;1.83;;
29246;SDS011;16272;48.188;9.964;2023-04-25T03:56:48;7.37;;;2.10;;
29246;SDS011;16272;48.188;9.964;2023-04-25T03:59:13;7.03;;;1.97;;
29246;SDS011;16272;48.188;9.964;2023-04-25T04:01:39;6.77;;;2.10;;
29246;SDS011;16272;48.188;9.964;2023-04-25T04:04:04;7.63;;;2.50;;
29246;SDS011;16272;48.188;9.964;2023-04-25T04:06:29;7.30;;;2.30;;
29246;SDS011;16272;48.188;9.964;2023-04-25T04:08:56;7.07;;;2.10;;
29246;SDS011;16272;48.188;9.964;2023-04-25T04:11:21;5.63;;;1.93;;
29246;SDS011;16272;48.188;9.964;2023-04-25T04:13:47;8.55;;;2.22;;
29246;SDS011;16272;48.188;9.964;2023-04-25T04:16:12;6.70;;;2.17;;
29246;SDS011;16272;48.188;9.964;2023-04-25T04:18:37;7.70;;;1.97;;
29246;SDS011;16272;48.188;9.964;2023-04-25T04:21:03;7.53;;;2.10;;
29246;SDS011;16272;48.188;9.964;2023-04-25T04:23:28;7.10;;;1.90;;
29246;SDS011;16272;48.188;9.964;2023-04-25T04:25:54;7.67;;;1.90;;
29246;SDS011;16272;48.188;9.964;2023-04-25T04:28:19;8.25;;;2.20;;
29246;SDS011;16272;48.188;9.964;2023-04-25T04:30:45;7.43;;;2.00;;
29246;SDS011;16272;48.188;9.964;2023-04-25T04:33:11;6.10;;;2.00;;
29246;SDS011;16272;48.188;9.964;2023-04-25T04:35:37;7.05;;;1.83;;
29246;SDS011;16272;48.188;9.964;2023-04-25T04:38:02;7.23;;;1.90;;
29246;SDS011;16272;48.188;9.964;2023-04-25T04:40:27;6.60;;;1.73;;
29246;SDS011;16272;48.188;9.964;2023-04-25T04:42:53;6.07;;;1.53;;
29246;SDS011;16272;48.188;9.964;2023-04-25T04:45:21;7.15;;;1.80;;
29246;SDS011;16272;48.188;9.964;2023-04-25T04:47:47;6.68;;;1.80;;
29246;SDS011;16272;48.188;9.964;2023-04-25T04:50:13;6.30;;;1.75;;
29246;SDS011;16272;48.188;9.964;2023-04-25T04:52:39;5.60;;;1.50;;
29246;SDS011;16272;48.188;9.964;2023-04-25T04:55:05;6.53;;;1.92;;
29246;SDS011;16272;48.188;9.964;2023-04-25T04:57:31;6.17;;;1.57;;
29246;SDS011;16272;48.188;9.964;2023-04-25T04:59:58;6.25;;;1.80;;
29246;SDS011;16272;48.188;9.964;2023-04-25T05:02:23;5.82;;;1.73;;
29246;SDS011;16272;48.188;9.964;2023-04-25T05:04:49;7.40;;;1.90;;
29246;SDS011;16272;48.188;9.964;2023-04-25T05:07:15;7.75;;;1.63;;
29246;SDS011;16272;48.188;9.964;2023-04-25T05:09:40;5.97;;;1.80;;
29246;SDS011;16272;48.188;9.964;2023-04-25T05:12:06;7.20;;;1.80;;
29246;SDS011;16272;48.188;9.964;2023-04-25T05:14:31;5.30;;;1.43;;
29246;SDS011;16272;48.188;9.964;2023-04-25T05:16:56;6.43;;;1.70;;
29246;SDS011;16272;48.188;9.964;2023-04-25T05:19:23;6.13;;;1.80;;
29246;SDS011;16272;48.188;9.964;2023-04-25T05:21:48;8.60;;;1.63;;
29246;SDS011;16272;48.188;9.964;2023-04-25T05:24:14;6.93;;;1.87;;
29246;SDS011;16272;48.188;9.964;2023-04-25T05:26:39;6.00;;;1.50;;
29246;SDS011;16272;48.188;9.964;2023-04-25T05:29:04;5.53;;;1.50;;
29246;SDS011;16272;48.188;9.964;2023-04-25T05:31:30;8.30;;;2.33;;
29246;SDS011;16272;48.188;9.964;2023-04-25T05:33:56;5.83;;;1.63;;
29246;SDS011;16272;48.188;9.964;2023-04-25T05:36:22;5.80;;;1.38;;
29246;SDS011;16272;48.188;9.964;2023-04-25T05:38:47;5.80;;;1.90;;
29246;SDS011;16272;48.188;9.964;2023-04-25T05:41:13;7.53;;;2.07;;
29246;SDS011;16272;48.188;9.964;2023-04-25T05:43:38;8.33;;;1.87;;
29246;SDS011;16272;48.188;9.964;2023-04-25T05:46:03;6.67;;;1.87;;
29246;SDS011;16272;48.188;9.964;2023-04-25T05:48:29;7.28;;;2.13;;
29246;SDS011;16272;48.188;9.964;2023-04-25T05:50:55;5.73;;;1.80;;
29246;SDS011;16272;48.188;9.964;2023-04-25T05:53:20;6.50;;;1.63;;
29246;SDS011;16272;48.188;9.964;2023-04-25T05:55:46;6.80;;;1.90;;
29246;SDS011;16272;48.188;9.964;2023-04-25T05:58:12;7.43;;;1.98;;
29246;SDS011;16272;48.188;9.964;2023-04-25T06:00:38;12.37;;;2.47;;
29246;SDS011;16272;48.188;9.964;2023-04-25T06:03:06;7.45;;;1.95;;
29246;SDS011;16272;48.188;9.964;2023-04-25T06:05:34;7.33;;;1.80;;
29246;SDS011;16272;48.188;9.964;2023-04-25T06:07:59;8.18;;;1.95;;
29246;SDS011;16272;48.188;9.964;2023-04-25T06:10:25;8.27;;;1.80;;
29246;SDS011;16272;48.188;9.964;2023-04-25T06:12:50;11.77;;;2.17;;
29246;SDS011;16272;48.188;9.964;2023-04-25T06:15:16;7.00;;;2.07;;
29246;SDS011;16272;48.188;9.964;2023-04-25T06:17:41;7.70;;;2.17;;
29246;SDS011;16272;48.188;9.964;2023-04-25T06:20:06;7.33;;;2.20;;
29246;SDS011;16272;48.188;9.964;2023-04-25T06:22:33;8.27;;;2.15;;
29246;SDS011;16272;48.188;9.964;2023-04-25T06:24:58;8.43;;;2.50;;
29246;SDS011;16272;48.188;9.964;2023-04-25T06:27:25;6.97;;;2.05;;
29246;SDS011;16272;48.188;9.964;2023-04-25T06:29:50;9.03;;;2.20;;
29246;SDS011;16272;48.188;9.964;2023-04-25T06:32:15;8.43;;;2.03;;
29246;SDS011;16272;48.188;9.964;2023-04-25T06:34:42;7.20;;;2.20;;
29246;SDS011;16272;48.188;9.964;2023-04-25T06:37:08;10.13;;;2.25;;
29246;SDS011;16272;48.188;9.964;2023-04-25T06:39:33;8.83;;;2.50;;
29246;SDS011;16272;48.188;9.964;2023-04-25T06:41:59;9.07;;;2.40;;
29246;SDS011;16272;48.188;9.964;2023-04-25T06:44:24;8.83;;;2.30;;
29246;SDS011;16272;48.188;9.964;2023-04-25T06:46:51;9.35;;;2.20;;
29246;SDS011;16272;48.188;9.964;2023-04-25T06:49:16;7.00;;;2.10;;
29246;SDS011;16272;48.188;9.964;2023-04-25T06:51:42;7.30;;;2.23;;
29246;SDS011;16272;48.188;9.964;2023-04-25T06:54:07;8.67;;;2.43;;
29246;SDS011;16272;48.188;9.964;2023-04-25T06:56:32;7.50;;;2.37;;
29246;SDS011;16272;48.188;9.964;2023-04-25T06:58:58;8.47;;;2.30;;
29246;SDS011;16272;48.188;9.964;2023-04-25T07:01:25;8.63;;;2.57;;
29246;SDS011;16272;48.188;9.964;2023-04-25T07:03:50;7.07;;;2.00;;
29246;SDS011;16272;48.188;9.964;2023-04-25T07:06:15;8.80;;;2.10;;
29246;SDS011;16272;48.188;9.964;2023-04-25T07:08:41;8.53;;;2.47;;
29246;SDS011;16272;48.188;9.964;2023-04-25T07:11:06;8.57;;;2.33;;
29246;SDS011;16272;48.188;9.964;2023-04-25T07:13:31;7.03;;;2.20;;
29246;SDS011;16272;48.188;9.964;2023-04-25T07:15:57;7.17;;;2.10;;
29246;SDS011;16272;48.188;9.964;2023-04-25T07:18:22;8.17;;;2.47;;
29246;SDS011;16272;48.188;9.964;2023-04-25T07:20:48;8.50;;;2.27;;
29246;SDS011;16272;48.188;9.964;2023-04-25T07:23:13;8.27;;;2.37;;
29246;SDS011;16272;48.188;9.964;2023-04-25T07:25:38;7.50;;;2.80;;
29246;SDS011;16272;48.188;9.964;2023-04-25T07:28:04;8.13;;;2.17;;
29246;SDS011;16272;48.188;9.964;2023-04-25T07:30:29;6.87;;;2.17;;
29246;SDS011;16272;48.188;9.964;2023-04-25T07:32:55;7.03;;;2.30;;
29246;SDS011;16272;48.188;9.964;2023-04-25T07:35:20;7.53;;;2.50;;
29246;SDS011;16272;48.188;9.964;2023-04-25T07:37:46;6.90;;;2.20;;
29246;SDS011;16272;48.188;9.964;2023-04-25T07:40:11;7.67;;;2.43;;
29246;SDS011;16272;48.188;9.964;2023-04-25T07:42:37;7.50;;;2.30;;
29246;SDS011;16272;48.188;9.964;2023-04-25T07:45:02;6.87;;;2.23;;
29246;SDS011;16272;48.188;9.964;2023-04-25T07:47:28;6.35;;;1.88;;
29246;SDS011;16272;48.188;9.964;2023-04-25T07:49:53;5.80;;;2.07;;
29246;SDS011;16272;48.188;9.964;2023-04-25T07:52:19;7.30;;;2.00;;
29246;SDS011;16272;48.188;9.964;2023-04-25T07:54:44;6.70;;;2.25;;
29246;SDS011;16272;48.188;9.964;2023-04-25T07:57:10;7.47;;;2.73;;
29246;SDS011;16272;48.188;9.964;2023-04-25T07:59:35;7.63;;;1.90;;
29246;SDS011;16272;48.188;9.964;2023-04-25T08:02:00;7.03;;;1.90;;
29246;SDS011;16272;48.188;9.964;2023-04-25T08:04:26;7.77;;;2.67;;
29246;SDS011;16272;48.188;9.964;2023-04-25T08:06:51;6.57;;;1.92;;
29246;SDS011;16272;48.188;9.964;2023-04-25T08:09:18;5.80;;;1.77;;
29246;SDS011;16272;48.188;9.964;2023-04-25T08:11:44;7.10;;;2.20;;
29246;SDS011;16272;48.188;9.964;2023-04-25T08:14:11;7.40;;;2.43;;
29246;SDS011;16272;48.188;9.964;2023-04-25T08:16:37;7.63;;;2.00;;
29246;SDS011;16272;48.188;9.964;2023-04-25T08:19:02;8.27;;;2.10;;
29246;SDS011;16272;48.188;9.964;2023-04-25T08:21:27;6.83;;;1.90;;
29246;SDS011;16272;48.188;9.964;2023-04-25T08:23:53;6.15;;;1.88;;
29246;SDS011;16272;48.188;9.964;2023-04-25T08:26:19;7.23;;;2.00;;
29246;SDS011;16272;48.188;9.964;2023-04-25T08:28:44;7.13;;;2.15;;
29246;SDS011;16272;48.188;9.964;2023-04-25T08:31:11;7.10;;;2.23;;
29246;SDS011;16272;48.188;9.964;2023-04-25T08:33:36;7.63;;;2.10;;
29246;SDS011;16272;48.188;9.964;2023-04-25T08:36:01;8.47;;;2.13;;
29246;SDS011;16272;48.188;9.964;2023-04-25T08:38:27;5.80;;;1.80;;
29246;SDS011;16272;48.188;9.964;2023-04-25T08:40:52;6.27;;;1.73;;
29246;SDS011;16272;48.188;9.964;2023-04-25T08:43:21;6.00;;;1.90;;
29246;SDS011;16272;48.188;9.964;2023-04-25T08:45:48;5.55;;;1.70;;
29246;SDS011;16272;48.188;9.964;2023-04-25T08:48:14;6.70;;;2.10;;
29246;SDS011;16272;48.188;9.964;2023-04-25T08:50:44;6.38;;;2.15;;
29246;SDS011;16272;48.188;9.964;2023-04-25T08:53:13;6.47;;;1.90;;
29246;SDS011;16272;48.188;9.964;2023-04-25T08:55:45;7.10;;;2.20;;
29246;SDS011;16272;48.188;9.964;2023-04-25T08:58:11;7.33;;;2.10;;
29246;SDS011;16272;48.188;9.964;2023-04-25T09:00:38;9.05;;;2.60;;
29246;SDS011;16272;48.188;9.964;2023-04-25T09:03:03;11.68;;;3.33;;
29246;SDS011;16272;48.188;9.964;2023-04-25T09:05:29;8.17;;;2.20;;
29246;SDS011;16272;48.188;9.964;2023-04-25T09:07:55;6.70;;;2.38;;
29246;SDS011;16272;48.188;9.964;2023-04-25T09:10:21;7.87;;;2.20;;
29246;SDS011;16272;48.188;9.964;2023-04-25T09:13:01;7.43;;;1.80;;
29246;SDS011;16272;48.188;9.964;2023-04-25T09:15:30;5.82;;;1.80;;
29246;SDS011;16272;48.188;9.964;2023-04-25T09:17:59;8.47;;;2.47;;
29246;SDS011;16272;48.188;9.964;2023-04-25T09:20:24;6.53;;;2.10;;
29246;SDS011;16272;48.188;9.964;2023-04-25T09:23:00;6.77;;;1.70;;
29246;SDS011;16272;48.188;9.964;2023-04-25T09:25:27;7.25;;;2.33;;
29246;SDS011;16272;48.188;9.964;2023-04-25T09:28:00;6.40;;;2.00;;
29246;SDS011;16272;48.188;9.964;2023-04-25T09:30:30;5.90;;;1.73;;
29246;SDS011;16272;48.188;9.964;2023-04-25T09:32:56;5.30;;;1.60;;
29246;SDS011;16272;48.188;9.964;2023-04-25T09:35:26;6.65;;;2.00;;
29246;SDS011;16272;48.188;9.964;2023-04-25T09:37:51;6.32;;;2.10;;
29246;SDS011;16272;48.188;9.964;2023-04-25T09:40:17;6.13;;;2.00;;
29246;SDS011;16272;48.188;9.964;2023-04-25T09:42:43;6.63;;;2.25;;
29246;SDS011;16272;48.188;9.964;2023-04-25T09:45:08;6.80;;;1.60;;
29246;SDS011;16272;48.188;9.964;2023-04-25T09:47:38;6.35;;;1.48;;
29246;SDS011;16272;48.188;9.964;2023-04-25T09:50:04;6.70;;;1.60;;
29246;SDS011;16272;48.188;9.964;2023-04-25T09:52:40;7.10;;;1.80;;
29246;SDS011;16272;48.188;9.964;2023-04-25T09:55:05;5.10;;;1.40;;
29246;SDS011;16272;48.188;9.964;2023-04-25T09:57:31;6.70;;;1.57;;
29246;SDS011;16272;48.188;9.964;2023-04-25T09:59:56;6.55;;;1.70;;
29246;SDS011;16272;48.188;9.964;2023-04-25T10:02:25;5.20;;;1.65;;
29246;SDS011;16272;48.188;9.964;2023-04-25T10:04:52;5.88;;;1.50;;
29246;SDS011;16272;48.188;9.964;2023-04-25T10:07:20;5.90;;;1.60;;
29246;SDS011;16272;48.188;9.964;2023-04-25T10:09:50;5.80;;;1.50;;
29246;SDS011;16272;48.188;9.964;2023-04-25T10:12:24;6.28;;;1.55;;
29246;SDS011;16272;48.188;9.964;2023-04-25T10:14:49;4.67;;;1.27;;
29246;SDS011;16272;48.188;9.964;2023-04-25T10:17:15;5.15;;;1.20;;
29246;SDS011;16272;48.188;9.964;2023-04-25T10:19:42;4.60;;;1.15;;
29246;SDS011;16272;48.188;9.964;2023-04-25T10:22:13;4.33;;;1.10;;
29246;SDS011;16272;48.188;9.964;2023-04-25T10:24:43;4.30;;;0.95;;
29246;SDS011;16272;48.188;9.964;2023-04-25T10:27:09;3.40;;;0.80;;
29246;SDS011;16272;48.188;9.964;2023-04-25T10:29:35;4.00;;;1.00;;
29246;SDS011;16272;48.188;9.964;2023-04-25T10:32:01;3.80;;;0.73;;
29246;SDS011;16272;48.188;9.964;2023-04-25T10:34:42;4.03;;;0.80;;
29246;SDS011;16272;48.188;9.964;2023-04-25T10:37:11;4.22;;;1.02;;
29246;SDS011;16272;48.188;9.964;2023-04-25T10:39:38;3.63;;;0.70;;
29246;SDS011;16272;48.188;9.964;2023-04-25T10:42:06;3.63;;;0.80;;
29246;SDS011;16272;48.188;9.964;2023-04-25T10:44:32;3.50;;;0.73;;
29246;SDS011;16272;48.188;9.964;2023-04-25T10:47:01;3.45;;;0.70;;
29246;SDS011;16272;48.188;9.964;2023-04-25T10:49:29;3.75;;;0.88;;
29246;SDS011;16272;48.188;9.964;2023-04-25T10:54:53;3.90;;;0.90;;
29246;SDS011;16272;48.188;9.964;2023-04-25T11:02:30;2.40;;;0.60;;
29246;SDS011;16272;48.188;9.964;2023-04-25T11:04:56;3.33;;;0.73;;
29246;SDS011;16272;48.188;9.964;2023-04-25T11:10:24;4.00;;;1.10;;
29246;SDS011;16272;48.188;9.964;2023-04-25T11:13:01;3.70;;;0.80;;
29246;SDS011;16272;48.188;9.964;2023-04-25T11:15:27;3.92;;;0.95;;
29246;SDS011;16272;48.188;9.964;2023-04-25T11:17:53;4.23;;;1.30;;
29246;SDS011;16272;48.188;9.964;2023-04-25T11:20:19;5.95;;;1.30;;
29246;SDS011;16272;48.188;9.964;2023-04-25T11:22:45;3.80;;;0.93;;
29246;SDS011;16272;48.188;9.964;2023-04-25T11:25:11;4.57;;;1.08;;
29246;SDS011;16272;48.188;9.964;2023-04-25T11:30:16;4.30;;;1.20;;
29246;SDS011;16272;48.188;9.964;2023-04-25T11:32:42;4.82;;;1.50;;
29246;SDS011;16272;48.188;9.964;2023-04-25T11:35:08;4.67;;;1.23;;
29246;SDS011;16272;48.188;9.964;2023-04-25T11:37:34;5.10;;;1.10;;
29246;SDS011;16272;48.188;9.964;2023-04-25T11:40:00;4.77;;;1.17;;
29246;SDS011;16272;48.188;9.964;2023-04-25T11:42:26;5.60;;;1.05;;
29246;SDS011;16272;48.188;9.964;2023-04-25T11:44:51;4.70;;;1.13;;
29246;SDS011;16272;48.188;9.964;2023-04-25T11:47:17;4.53;;;1.40;;
29246;SDS011;16272;48.188;9.964;2023-04-25T11:49:42;4.67;;;1.27;;
29246;SDS011;16272;48.188;9.964;2023-04-25T11:52:07;4.03;;;0.90;;
29246;SDS011;16272;48.188;9.964;2023-04-25T11:54:35;2.90;;;0.60;;
29246;SDS011;16272;48.188;9.964;2023-04-25T11:57:01;2.33;;;0.60;;
29246;SDS011;16272;48.188;9.964;2023-04-25T11:59:28;2.63;;;0.57;;
29246;SDS011;16272;48.188;9.964;2023-04-25T12:01:53;2.60;;;0.60;;
29246;SDS011;16272;48.188;9.964;2023-04-25T12:04:22;2.17;;;0.40;;
29246;SDS011;16272;48.188;9.964;2023-04-25T12:06:49;2.40;;;0.60;;
29246;SDS011;16272;48.188;9.964;2023-04-25T12:09:18;2.75;;;0.60;;
29246;SDS011;16272;48.188;9.964;2023-04-25T12:11:54;2.63;;;0.60;;
29246;SDS011;16272;48.188;9.964;2023-04-25T12:14:23;2.78;;;0.70;;
29246;SDS011;16272;48.188;9.964;2023-04-25T12:16:51;2.35;;;0.60;;
29246;SDS011;16272;48.188;9.964;2023-04-25T12:19:18;2.83;;;0.50;;
29246;SDS011;16272;48.188;9.964;2023-04-25T12:21:46;3.45;;;0.90;;
29246;SDS011;16272;48.188;9.964;2023-04-25T12:24:16;2.90;;;0.60;;
29246;SDS011;16272;48.188;9.964;2023-04-25T12:27:03;2.35;;;0.50;;
29246;SDS011;16272;48.188;9.964;2023-04-25T12:29:32;2.47;;;0.50;;
29246;SDS011;16272;48.188;9.964;2023-04-25T12:31:58;2.88;;;0.55;;
29246;SDS011;16272;48.188;9.964;2023-04-25T12:34:24;2.93;;;0.60;;
29246;SDS011;16272;48.188;9.964;2023-04-25T12:36:50;2.80;;;0.60;;
29246;SDS011;16272;48.188;9.964;2023-04-25T12:39:16;2.43;;;0.63;;
29246;SDS011;16272;48.188;9.964;2023-04-25T12:41:44;2.60;;;0.60;;
29246;SDS011;16272;48.188;9.964;2023-04-25T12:44:09;2.73;;;0.60;;
29246;SDS011;16272;48.188;9.964;2023-04-25T12:46:35;2.40;;;0.60;;
29246;SDS011;16272;48.188;9.964;2023-04-25T12:49:01;2.42;;;0.57;;
29246;SDS011;16272;48.188;9.964;2023-04-25T12:51:28;3.38;;;0.75;;
29246;SDS011;16272;48.188;9.964;2023-04-25T12:53:53;4.53;;;0.60;;
29246;SDS011;16272;48.188;9.964;2023-04-25T12:56:19;2.53;;;0.50;;
29246;SDS011;16272;48.188;9.964;2023-04-25T12:58:44;3.00;;;0.73;;
29246;SDS011;16272;48.188;9.964;2023-04-25T13:01:10;3.03;;;0.60;;
29246;SDS011;16272;48.188;9.964;2023-04-25T13:03:37;3.50;;;1.10;;
29246;SDS011;16272;48.188;9.964;2023-04-25T13:06:02;3.53;;;0.77;;
29246;SDS011;16272;48.188;9.964;2023-04-25T13:08:28;3.10;;;0.60;;
29246;SDS011;16272;48.188;9.964;2023-04-25T13:10:53;3.37;;;0.70;;
29246;SDS011;16272;48.188;9.964;2023-04-25T13:13:18;2.67;;;0.63;;
29246;SDS011;16272;48.188;9.964;2023-04-25T13:15:44;3.20;;;0.70;;
29246;SDS011;16272;48.188;9.964;2023-04-25T13:18:09;4.40;;;1.20;;
29246;SDS011;16272;48.188;9.964;2023-04-25T13:20:34;4.73;;;1.27;;
29246;SDS011;16272;48.188;9.964;2023-04-25T13:23:00;5.13;;;1.17;;
29246;SDS011;16272;48.188;9.964;2023-04-25T13:25:25;3.37;;;0.80;;
29246;SDS011;16272;48.188;9.964;2023-04-25T13:27:51;3.50;;;0.70;;
29246;SDS011;16272;48.188;9.964;2023-04-25T13:30:16;2.90;;;0.70;;
29246;SDS011;16272;48.188;9.964;2023-04-25T13:32:42;4.80;;;0.90;;
29246;SDS011;16272;48.188;9.964;2023-04-25T13:35:11;3.43;;;1.00;;
29246;SDS011;16272;48.188;9.964;2023-04-25T13:37:38;3.70;;;1.02;;
29246;SDS011;16272;48.188;9.964;2023-04-25T13:40:05;4.03;;;0.88;;
29246;SDS011;16272;48.188;9.964;2023-04-25T13:42:34;3.83;;;0.80;;
29246;SDS011;16272;48.188;9.964;2023-04-25T13:45:00;3.67;;;1.00;;
29246;SDS011;16272;48.188;9.964;2023-04-25T13:47:25;4.10;;;1.00;;
29246;SDS011;16272;48.188;9.964;2023-04-25T13:49:51;4.22;;;1.20;;
29246;SDS011;16272;48.188;9.964;2023-04-25T13:52:17;4.60;;;1.10;;
29246;SDS011;16272;48.188;9.964;2023-04-25T13:54:43;4.50;;;1.08;;
29246;SDS011;16272;48.188;9.964;2023-04-25T13:57:09;5.10;;;1.30;;
29246;SDS011;16272;48.188;9.964;2023-04-25T13:59:36;4.65;;;1.20;;
29246;SDS011;16272;48.188;9.964;2023-04-25T14:02:01;4.87;;;1.40;;
29246;SDS011;16272;48.188;9.964;2023-04-25T14:04:27;4.13;;;1.23;;
29246;SDS011;16272;48.188;9.964;2023-04-25T14:06:52;4.05;;;0.95;;
29246;SDS011;16272;48.188;9.964;2023-04-25T14:09:18;4.10;;;1.07;;
29246;SDS011;16272;48.188;9.964;2023-04-25T14:11:45;4.20;;;1.05;;
29246;SDS011;16272;48.188;9.964;2023-04-25T14:14:11;5.20;;;1.70;;
29246;SDS011;16272;48.188;9.964;2023-04-25T14:16:37;7.15;;;2.60;;
29246;SDS011;16272;48.188;9.964;2023-04-25T14:19:02;4.03;;;1.30;;
29246;SDS011;16272;48.188;9.964;2023-04-25T14:21:28;4.10;;;1.10;;
29246;SDS011;16272;48.188;9.964;2023-04-25T14:23:56;4.53;;;1.20;;
29246;SDS011;16272;48.188;9.964;2023-04-25T14:26:21;4.53;;;1.20;;
29246;SDS011;16272;48.188;9.964;2023-04-25T14:28:47;5.00;;;1.50;;
29246;SDS011;16272;48.188;9.964;2023-04-25T14:31:12;4.57;;;1.27;;
29246;SDS011;16272;48.188;9.964;2023-04-25T14:33:37;5.65;;;1.70;;
29246;SDS011;16272;48.188;9.964;2023-04-25T14:36:06;4.50;;;1.30;;
29246;SDS011;16272;48.188;9.964;2023-04-25T14:38:32;4.50;;;1.20;;
29246;SDS011;16272;48.188;9.964;2023-04-25T14:40:57;4.50;;;1.20;;
29246;SDS011;16272;48.188;9.964;2023-04-25T14:43:22;4.70;;;1.17;;
29246;SDS011;16272;48.188;9.964;2023-04-25T14:45:48;3.87;;;0.90;;
29246;SDS011;16272;48.188;9.964;2023-04-25T14:48:13;4.10;;;1.10;;
29246;SDS011;16272;48.188;9.964;2023-04-25T14:50:39;4.75;;;1.27;;
29246;SDS011;16272;48.188;9.964;2023-04-25T14:53:05;4.40;;;1.00;;
29246;SDS011;16272;48.188;9.964;2023-04-25T14:55:30;4.17;;;1.03;;